»·PEaware :: INDIE36 KWVI-KSJC

INDIE36 :: KWVI-KSJC

FLIGHT INFORMATION

Flight Status: Arrived
Operator: Unknown
More flights by this operator :: More flights under this callsign
Pilot: Indie I. (23357)
Aircraft: BEECH AIRCRAFT T-6A TEXAN
(TEX2)
More flights by this aircraft type
Origin: KWVI Watsonville Mun
United States
Destination: KSJC Mineta San Jose Intl
United States
More flights between these airports :: More routes between these airports
Route: +WVI4 SNS BSR BSR/141/5 SNS KWVI KLIDE
File this flight plan on PilotEdge
Remarks: Delay Hunter High MOA 11000 to 180000 with Indie33 (self deconflict) 0+15, Delay at KWVI for 1 approach
Altitude:
(Current/Filed)
11,000ft
Speed:
(Current/Filed)
258kts
Departed: 15-Apr-19 10:50 AM
Arrived: 15-Apr-19 11:46 AM
Distance/Time
Traveled:
27nm/0:55
Distance/Time
To Go:
Arrived

Flight Plot

Page will automatically refresh every two minutes.

Flight plan parsing failed; only flown route is shown


Map Options




Map Legend


Flown Route
Filed Route
Departure Airport
Arrival Airport
Navaid (VOR, NDB)
Fix

Horizontal Profiles

Position Reports

Time Latitude Longitude Heading Altitude Ground
Speed
15-Apr-19 10:38 37.365261 -121.937155 0 65ft 0kts
15-Apr-19 10:40 36.931094 -121.791684 356 163ft 0kts
15-Apr-19 10:41 36.931097 -121.791685 356 163ft 0kts
15-Apr-19 10:42 36.931099 -121.791685 356 163ft 0kts
15-Apr-19 10:43 36.931102 -121.791685 356 163ft 0kts
15-Apr-19 10:44 36.931517 -121.791668 2 163ft 11kts
15-Apr-19 10:45 36.935381 -121.789239 37 163ft 24kts
15-Apr-19 10:46 36.938657 -121.786927 312 163ft 11kts
15-Apr-19 10:47 36.938784 -121.787132 303 163ft 0kts
15-Apr-19 10:48 36.938691 -121.788177 212 163ft 13kts
15-Apr-19 10:49 36.908552 -121.815601 206 1795ft 190kts
15-Apr-19 10:50 36.860759 -121.806553 149 5440ft 191kts
15-Apr-19 10:51 36.811946 -121.767228 156 8266ft 208kts
15-Apr-19 10:52 36.758391 -121.738099 148 11041ft 229kts
15-Apr-19 10:53 36.711505 -121.668508 129 10978ft 254kts
15-Apr-19 10:54 36.664602 -121.605411 136 11032ft 245kts
15-Apr-19 10:55 36.603502 -121.604256 198 11017ft 247kts
15-Apr-19 10:56 36.535082 -121.614362 185 11038ft 246kts
15-Apr-19 10:57 36.466685 -121.619626 184 11032ft 248kts
15-Apr-19 10:58 36.397573 -121.624040 180 11037ft 247kts
15-Apr-19 10:59 36.328331 -121.627869 185 11002ft 248kts
15-Apr-19 11:00 36.259415 -121.635920 181 11002ft 246kts
15-Apr-19 11:01 36.191014 -121.640644 186 11026ft 247kts
15-Apr-19 11:02 36.131117 -121.613328 161 11021ft 248kts
15-Apr-19 11:03 36.067956 -121.582989 129 11604ft 230kts
15-Apr-19 11:04 36.027498 -121.512393 124 12651ft 271kts
15-Apr-19 11:05 35.995032 -121.549240 250 13408ft 258kts
15-Apr-19 11:06 35.933371 -121.516933 134 14086ft 263kts
15-Apr-19 11:07 35.964831 -121.459306 123 13887ft 297kts
15-Apr-19 11:08 35.940919 -121.385224 359 13033ft 304kts
15-Apr-19 11:09 35.998850 -121.444274 318 13321ft 280kts
15-Apr-19 11:11 36.052748 -121.499598 320 13468ft 241kts
15-Apr-19 11:12 36.104547 -121.558277 302 13056ft 261kts
15-Apr-19 11:13 36.159031 -121.604107 354 12948ft 237kts
15-Apr-19 11:14 36.225671 -121.607320 1 13034ft 251kts
15-Apr-19 11:15 36.296432 -121.605997 2 12969ft 258kts
15-Apr-19 11:16 36.367725 -121.604922 359 13043ft 255kts
15-Apr-19 11:17 36.439004 -121.605280 0 12388ft 247kts
15-Apr-19 11:18 36.507667 -121.603604 0 8958ft 239kts
15-Apr-19 11:19 36.572788 -121.602451 1 6115ft 226kts
15-Apr-19 11:20 36.629544 -121.603813 351 6052ft 182kts
15-Apr-19 11:21 36.678792 -121.611693 346 5928ft 171kts
15-Apr-19 11:22 36.720762 -121.642704 328 4107ft 175kts
15-Apr-19 11:23 36.762081 -121.672922 331 3703ft 166kts
15-Apr-19 11:24 36.802546 -121.698794 334 2937ft 165kts
15-Apr-19 11:25 36.843064 -121.723269 334 2438ft 157kts
15-Apr-19 11:26 36.879503 -121.750311 326 2309ft 137kts
15-Apr-19 11:27 36.908458 -121.775389 326 1484ft 118kts
15-Apr-19 11:28 36.917341 -121.804092 256 1046ft 109kts
15-Apr-19 11:29 36.935078 -121.791312 43 1512ft 143kts
15-Apr-19 11:29 36.959739 -121.809264 256 4332ft 169kts
15-Apr-19 11:31 36.905871 -121.787946 144 5068ft 214kts
15-Apr-19 11:32 36.863367 -121.737369 95 5049ft 216kts
15-Apr-19 11:32 36.895537 -121.692766 34 5016ft 220kts
15-Apr-19 11:33 36.946085 -121.648667 35 4946ft 221kts
15-Apr-19 11:35 37.008587 -121.616559 344 4950ft 222kts
15-Apr-19 11:35 37.058843 -121.634654 343 4063ft 226kts
15-Apr-19 11:36 37.104702 -121.656308 336 4001ft 156kts
15-Apr-19 11:37 37.142546 -121.687418 318 3972ft 167kts
15-Apr-19 11:38 37.177649 -121.725056 318 3841ft 161kts
15-Apr-19 11:39 37.210841 -121.763471 319 3621ft 164kts
15-Apr-19 11:40 37.242802 -121.798377 319 2855ft 134kts
15-Apr-19 11:41 37.270441 -121.827770 317 2276ft 126kts
15-Apr-19 11:42 37.295560 -121.855978 321 1673ft 120kts
15-Apr-19 11:43 37.320436 -121.883661 318 1026ft 121kts
15-Apr-19 11:44 37.345444 -121.911036 319 435ft 115kts
15-Apr-19 11:45 37.364869 -121.932268 318 65ft 10kts
15-Apr-19 11:46 37.366610 -121.935381 226 65ft 0kts
15-Apr-19 11:47 37.365540 -121.936882 233 65ft 0kts
15-Apr-19 11:48 37.363159 -121.935138 137 65ft 0kts

Navigation Log

Ident Type
Flight plan parsing failed, navigation log unavailable